Terminal Aerodrome Forecast
Issued by NWS Grand Forks, ND

Home | Current Version | Previous Version | Text Only | Print | Product List | Glossary Off
Versions: 1 2 3 4 5 6 7 8 9 10 11 12

000
FTUS43 KFGF 252100 AAB
TAFFAR
TAF AMD
KFAR 252139Z 2522/2618 35019KT P6SM SCT020
      TEMPO 2522/2523 BKN020
     FM260100 33012KT P6SM FEW250=

USA.gov is the U.S. government's official web portal to all federal, state and local government web resources and services.